sensor_id;sensor_type;location;lat;lon;timestamp;pressure;altitude;pressure_sealevel;temperature;humidity
64876;BME280;51369;49.862;9.908;2023-01-26T00:01:07;98954.72;;;1.88;78.10
64876;BME280;51369;49.862;9.908;2023-01-26T00:03:32;98949.41;;;1.88;78.19
64876;BME280;51369;49.862;9.908;2023-01-26T00:06:02;98950.28;;;1.87;77.69
64876;BME280;51369;49.862;9.908;2023-01-26T00:08:27;98957.41;;;1.88;78.63
64876;BME280;51369;49.862;9.908;2023-01-26T00:10:53;98957.41;;;1.90;77.90
64876;BME280;51369;49.862;9.908;2023-01-26T00:13:18;98951.19;;;1.89;77.92
64876;BME280;51369;49.862;9.908;2023-01-26T00:15:44;98943.19;;;1.89;78.25
64876;BME280;51369;49.862;9.908;2023-01-26T00:18:09;98944.97;;;1.89;78.42
64876;BME280;51369;49.862;9.908;2023-01-26T00:20:34;98939.66;;;1.89;77.98
64876;BME280;51369;49.862;9.908;2023-01-26T00:23:00;98945.84;;;1.88;77.85
64876;BME280;51369;49.862;9.908;2023-01-26T00:25:25;98947.63;;;1.87;78.32
64876;BME280;51369;49.862;9.908;2023-01-26T00:27:50;98943.19;;;1.86;77.50
64876;BME280;51369;49.862;9.908;2023-01-26T00:30:16;98938.75;;;1.87;77.31
64876;BME280;51369;49.862;9.908;2023-01-26T00:32:41;98932.53;;;1.86;78.18
64876;BME280;51369;49.862;9.908;2023-01-26T00:35:08;98917.44;;;1.84;77.37
64876;BME280;51369;49.862;9.908;2023-01-26T00:37:35;98924.56;;;1.85;78.41
64876;BME280;51369;49.862;9.908;2023-01-26T00:40:00;98924.56;;;1.85;78.28
64876;BME280;51369;49.862;9.908;2023-01-26T00:42:26;98922.78;;;1.85;78.28
64876;BME280;51369;49.862;9.908;2023-01-26T00:44:51;98919.22;;;1.86;77.81
64876;BME280;51369;49.862;9.908;2023-01-26T00:47:17;98917.44;;;1.85;78.21
64876;BME280;51369;49.862;9.908;2023-01-26T00:49:43;98921.00;;;1.84;77.85
64876;BME280;51369;49.862;9.908;2023-01-26T00:52:10;98930.75;;;1.84;77.32
64876;BME280;51369;49.862;9.908;2023-01-26T00:54:36;98928.09;;;1.84;78.71
64876;BME280;51369;49.862;9.908;2023-01-26T00:57:01;98924.56;;;1.85;78.07
64876;BME280;51369;49.862;9.908;2023-01-26T00:59:27;98923.66;;;1.84;78.88
64876;BME280;51369;49.862;9.908;2023-01-26T01:01:53;98924.56;;;1.86;78.25
64876;BME280;51369;49.862;9.908;2023-01-26T01:04:19;98922.78;;;1.87;78.70
64876;BME280;51369;49.862;9.908;2023-01-26T01:06:44;98911.25;;;1.86;78.28
64876;BME280;51369;49.862;9.908;2023-01-26T01:09:11;98915.69;;;1.84;77.50
64876;BME280;51369;49.862;9.908;2023-01-26T01:11:37;98915.69;;;1.84;78.97
64876;BME280;51369;49.862;9.908;2023-01-26T01:14:02;98919.22;;;1.85;78.40
64876;BME280;51369;49.862;9.908;2023-01-26T01:16:28;98910.34;;;1.83;77.52
64876;BME280;51369;49.862;9.908;2023-01-26T01:18:54;98912.13;;;1.82;78.54
64876;BME280;51369;49.862;9.908;2023-01-26T01:21:21;98917.44;;;1.84;78.31
64876;BME280;51369;49.862;9.908;2023-01-26T01:23:47;98907.69;;;1.83;78.52
64876;BME280;51369;49.862;9.908;2023-01-26T01:26:13;98913.91;;;1.83;78.42
64876;BME280;51369;49.862;9.908;2023-01-26T01:28:41;98911.25;;;1.83;77.91
64876;BME280;51369;49.862;9.908;2023-01-26T01:31:12;98906.81;;;1.82;78.04
64876;BME280;51369;49.862;9.908;2023-01-26T01:33:38;98901.47;;;1.81;77.57
64876;BME280;51369;49.862;9.908;2023-01-26T01:36:05;98912.13;;;1.78;78.01
64876;BME280;51369;49.862;9.908;2023-01-26T01:38:31;98910.34;;;1.77;77.66
64876;BME280;51369;49.862;9.908;2023-01-26T01:40:57;98905.91;;;1.74;78.26
64876;BME280;51369;49.862;9.908;2023-01-26T01:43:23;98900.63;;;1.73;77.39
64876;BME280;51369;49.862;9.908;2023-01-26T01:45:50;98906.81;;;1.73;77.74
64876;BME280;51369;49.862;9.908;2023-01-26T01:48:23;98897.94;;;1.71;77.03
64876;BME280;51369;49.862;9.908;2023-01-26T01:50:51;98894.41;;;1.71;77.08
64876;BME280;51369;49.862;9.908;2023-01-26T01:53:22;98892.63;;;1.71;77.84
64876;BME280;51369;49.862;9.908;2023-01-26T01:55:58;98893.50;;;1.72;78.01
64876;BME280;51369;49.862;9.908;2023-01-26T01:58:27;98886.41;;;1.72;78.28
64876;BME280;51369;49.862;9.908;2023-01-26T02:00:55;98886.41;;;1.71;78.24
64876;BME280;51369;49.862;9.908;2023-01-26T02:03:21;98887.31;;;1.71;78.29
64876;BME280;51369;49.862;9.908;2023-01-26T02:08:35;98876.66;;;1.71;77.59
64876;BME280;51369;49.862;9.908;2023-01-26T02:11:06;98870.44;;;1.72;77.70
64876;BME280;51369;49.862;9.908;2023-01-26T02:13:33;98864.25;;;1.73;78.36
64876;BME280;51369;49.862;9.908;2023-01-26T02:15:59;98861.56;;;1.73;77.97
64876;BME280;51369;49.862;9.908;2023-01-26T02:18:25;98855.31;;;1.74;78.53
64876;BME280;51369;49.862;9.908;2023-01-26T02:20:55;98857.09;;;1.74;77.99
64876;BME280;51369;49.862;9.908;2023-01-26T02:23:47;98858.00;;;1.76;78.37
64876;BME280;51369;49.862;9.908;2023-01-26T02:26:22;98851.78;;;1.75;78.09
64876;BME280;51369;49.862;9.908;2023-01-26T02:28:50;98836.69;;;1.76;78.33
64876;BME280;51369;49.862;9.908;2023-01-26T02:31:17;98835.81;;;1.75;77.48
64876;BME280;51369;49.862;9.908;2023-01-26T02:33:44;98828.72;;;1.74;78.49
64876;BME280;51369;49.862;9.908;2023-01-26T02:36:24;98831.41;;;1.73;78.85
64876;BME280;51369;49.862;9.908;2023-01-26T02:41:19;98836.69;;;1.74;77.71
64876;BME280;51369;49.862;9.908;2023-01-26T02:44:05;98832.28;;;1.73;77.72
64876;BME280;51369;49.862;9.908;2023-01-26T02:46:32;98824.31;;;1.72;78.16
64876;BME280;51369;49.862;9.908;2023-01-26T02:48:58;98825.19;;;1.72;78.81
64876;BME280;51369;49.862;9.908;2023-01-26T02:51:41;98814.56;;;1.72;77.77
64876;BME280;51369;49.862;9.908;2023-01-26T02:54:07;98816.31;;;1.73;78.98
64876;BME280;51369;49.862;9.908;2023-01-26T02:56:32;98807.44;;;1.71;78.39
64876;BME280;51369;49.862;9.908;2023-01-26T02:59:02;98809.22;;;1.71;78.43
64876;BME280;51369;49.862;9.908;2023-01-26T03:01:27;98808.34;;;1.69;77.81
64876;BME280;51369;49.862;9.908;2023-01-26T03:03:52;98805.69;;;1.69;78.31
64876;BME280;51369;49.862;9.908;2023-01-26T03:06:20;98805.69;;;1.67;78.09
64876;BME280;51369;49.862;9.908;2023-01-26T03:08:45;98810.13;;;1.67;78.64
64876;BME280;51369;49.862;9.908;2023-01-26T03:11:11;98802.13;;;1.65;77.91
64876;BME280;51369;49.862;9.908;2023-01-26T03:13:36;98795.91;;;1.65;77.59
64876;BME280;51369;49.862;9.908;2023-01-26T03:16:05;98800.34;;;1.66;78.72
64876;BME280;51369;49.862;9.908;2023-01-26T03:18:33;98798.59;;;1.65;77.49
64876;BME280;51369;49.862;9.908;2023-01-26T03:21:21;98796.81;;;1.62;78.75
64876;BME280;51369;49.862;9.908;2023-01-26T03:24:08;98792.38;;;1.61;78.50
64876;BME280;51369;49.862;9.908;2023-01-26T03:26:53;98793.25;;;1.61;77.86
64876;BME280;51369;49.862;9.908;2023-01-26T03:29:38;98800.34;;;1.61;78.42
64876;BME280;51369;49.862;9.908;2023-01-26T03:32:03;98796.81;;;1.60;77.99
64876;BME280;51369;49.862;9.908;2023-01-26T03:34:29;98801.25;;;1.61;78.70
64876;BME280;51369;49.862;9.908;2023-01-26T03:36:56;98797.69;;;1.61;78.55
64876;BME280;51369;49.862;9.908;2023-01-26T03:39:22;98795.94;;;1.60;77.76
64876;BME280;51369;49.862;9.908;2023-01-26T03:42:05;98789.72;;;1.61;77.63
64876;BME280;51369;49.862;9.908;2023-01-26T03:44:50;98794.16;;;1.62;78.31
64876;BME280;51369;49.862;9.908;2023-01-26T03:47:36;98790.59;;;1.63;78.26
64876;BME280;51369;49.862;9.908;2023-01-26T03:50:21;98799.47;;;1.62;77.82
64876;BME280;51369;49.862;9.908;2023-01-26T03:53:16;98785.28;;;1.60;77.85
64876;BME280;51369;49.862;9.908;2023-01-26T03:56:01;98788.81;;;1.59;77.66
64876;BME280;51369;49.862;9.908;2023-01-26T03:58:51;98787.94;;;1.58;77.68
64876;BME280;51369;49.862;9.908;2023-01-26T04:01:20;98782.63;;;1.55;78.44
64876;BME280;51369;49.862;9.908;2023-01-26T04:03:52;98782.63;;;1.55;78.26
64876;BME280;51369;49.862;9.908;2023-01-26T04:06:37;98789.72;;;1.55;78.12
64876;BME280;51369;49.862;9.908;2023-01-26T04:09:22;98788.81;;;1.54;77.82
64876;BME280;51369;49.862;9.908;2023-01-26T04:11:48;98786.16;;;1.54;78.21
64876;BME280;51369;49.862;9.908;2023-01-26T04:14:14;98788.81;;;1.54;77.58
64876;BME280;51369;49.862;9.908;2023-01-26T04:17:00;98790.59;;;1.55;77.67
64876;BME280;51369;49.862;9.908;2023-01-26T04:19:45;98785.28;;;1.55;77.85
64876;BME280;51369;49.862;9.908;2023-01-26T04:22:34;98791.50;;;1.54;77.91
64876;BME280;51369;49.862;9.908;2023-01-26T04:25:06;98787.06;;;1.53;78.47
64876;BME280;51369;49.862;9.908;2023-01-26T04:27:33;98785.28;;;1.52;77.92
64876;BME280;51369;49.862;9.908;2023-01-26T04:30:02;98781.72;;;1.52;77.45
64876;BME280;51369;49.862;9.908;2023-01-26T04:32:28;98779.97;;;1.51;78.62
64876;BME280;51369;49.862;9.908;2023-01-26T04:34:54;98782.63;;;1.48;77.67
64876;BME280;51369;49.862;9.908;2023-01-26T04:37:21;98780.84;;;1.47;77.73
64876;BME280;51369;49.862;9.908;2023-01-26T04:39:46;98776.41;;;1.46;78.63
64876;BME280;51369;49.862;9.908;2023-01-26T04:42:12;98775.53;;;1.45;78.54
64876;BME280;51369;49.862;9.908;2023-01-26T04:44:37;98771.09;;;1.46;78.10
64876;BME280;51369;49.862;9.908;2023-01-26T04:47:04;98773.75;;;1.46;78.54
64876;BME280;51369;49.862;9.908;2023-01-26T04:49:29;98778.19;;;1.47;78.72
64876;BME280;51369;49.862;9.908;2023-01-26T04:51:55;98779.06;;;1.46;78.49
64876;BME280;51369;49.862;9.908;2023-01-26T04:54:21;98773.75;;;1.46;78.96
64876;BME280;51369;49.862;9.908;2023-01-26T04:56:46;98761.34;;;1.46;78.45
64876;BME280;51369;49.862;9.908;2023-01-26T04:59:12;98764.00;;;1.46;78.98
64876;BME280;51369;49.862;9.908;2023-01-26T05:01:42;98764.88;;;1.47;78.64
64876;BME280;51369;49.862;9.908;2023-01-26T05:04:10;98769.31;;;1.46;78.94
64876;BME280;51369;49.862;9.908;2023-01-26T05:06:39;98771.09;;;1.47;78.96
64876;BME280;51369;49.862;9.908;2023-01-26T05:09:06;98774.63;;;1.49;78.56
64876;BME280;51369;49.862;9.908;2023-01-26T05:11:34;98777.31;;;1.51;79.02
64876;BME280;51369;49.862;9.908;2023-01-26T05:14:19;98774.63;;;1.51;78.95
64876;BME280;51369;49.862;9.908;2023-01-26T05:16:57;98769.31;;;1.49;79.29
64876;BME280;51369;49.862;9.908;2023-01-26T05:19:29;98770.19;;;1.53;78.63
64876;BME280;51369;49.862;9.908;2023-01-26T05:22:14;98772.84;;;1.54;79.70
64876;BME280;51369;49.862;9.908;2023-01-26T05:24:48;98770.19;;;1.53;79.62
64876;BME280;51369;49.862;9.908;2023-01-26T05:27:24;98758.66;;;1.54;79.34
64876;BME280;51369;49.862;9.908;2023-01-26T05:29:53;98760.44;;;1.53;79.33
64876;BME280;51369;49.862;9.908;2023-01-26T05:32:23;98763.09;;;1.50;79.86
64876;BME280;51369;49.862;9.908;2023-01-26T05:34:49;98763.09;;;1.52;79.77
64876;BME280;51369;49.862;9.908;2023-01-26T05:37:14;98766.66;;;1.52;79.47
64876;BME280;51369;49.862;9.908;2023-01-26T05:39:41;98764.00;;;1.51;79.65
64876;BME280;51369;49.862;9.908;2023-01-26T05:42:07;98766.66;;;1.51;79.88
64876;BME280;51369;49.862;9.908;2023-01-26T05:44:38;98765.78;;;1.52;79.17
64876;BME280;51369;49.862;9.908;2023-01-26T05:47:12;98766.66;;;1.52;80.28
64876;BME280;51369;49.862;9.908;2023-01-26T05:49:39;98769.31;;;1.54;80.02
64876;BME280;51369;49.862;9.908;2023-01-26T05:52:17;98768.44;;;1.53;79.35
64876;BME280;51369;49.862;9.908;2023-01-26T05:54:43;98764.00;;;1.54;79.60
64876;BME280;51369;49.862;9.908;2023-01-26T05:57:08;98770.19;;;1.54;79.63
64876;BME280;51369;49.862;9.908;2023-01-26T05:59:37;98766.66;;;1.54;80.06
64876;BME280;51369;49.862;9.908;2023-01-26T06:02:04;98776.41;;;1.53;79.48
64876;BME280;51369;49.862;9.908;2023-01-26T06:04:30;98776.41;;;1.52;79.07
64876;BME280;51369;49.862;9.908;2023-01-26T06:06:58;98773.75;;;1.50;79.60
64876;BME280;51369;49.862;9.908;2023-01-26T06:09:32;98778.19;;;1.50;79.98
64876;BME280;51369;49.862;9.908;2023-01-26T06:12:17;98771.09;;;1.47;79.98
64876;BME280;51369;49.862;9.908;2023-01-26T06:14:56;98771.97;;;1.46;80.20
64876;BME280;51369;49.862;9.908;2023-01-26T06:17:24;98777.31;;;1.45;80.23
64876;BME280;51369;49.862;9.908;2023-01-26T06:19:55;98778.19;;;1.44;79.64
64876;BME280;51369;49.862;9.908;2023-01-26T06:22:21;98765.78;;;1.44;80.08
64876;BME280;51369;49.862;9.908;2023-01-26T06:24:48;98779.97;;;1.45;80.42
64876;BME280;51369;49.862;9.908;2023-01-26T06:27:15;98771.09;;;1.43;79.37
64876;BME280;51369;49.862;9.908;2023-01-26T06:29:43;98784.41;;;1.43;79.53
64876;BME280;51369;49.862;9.908;2023-01-26T06:32:13;98780.84;;;1.42;79.72
64876;BME280;51369;49.862;9.908;2023-01-26T06:34:39;98779.97;;;1.42;79.53
64876;BME280;51369;49.862;9.908;2023-01-26T06:37:06;98780.84;;;1.41;80.40
64876;BME280;51369;49.862;9.908;2023-01-26T06:39:35;98771.09;;;1.41;80.01
64876;BME280;51369;49.862;9.908;2023-01-26T06:42:00;98780.84;;;1.42;79.69
64876;BME280;51369;49.862;9.908;2023-01-26T06:44:26;98778.19;;;1.42;79.60
64876;BME280;51369;49.862;9.908;2023-01-26T06:46:52;98780.84;;;1.44;80.07
64876;BME280;51369;49.862;9.908;2023-01-26T06:49:18;98782.63;;;1.45;79.99
64876;BME280;51369;49.862;9.908;2023-01-26T06:52:18;98780.84;;;1.41;80.49
64876;BME280;51369;49.862;9.908;2023-01-26T06:54:49;98790.59;;;1.42;80.74
64876;BME280;51369;49.862;9.908;2023-01-26T06:57:20;98783.50;;;1.41;80.07
64876;BME280;51369;49.862;9.908;2023-01-26T07:00:06;98787.06;;;1.40;80.70
64876;BME280;51369;49.862;9.908;2023-01-26T07:02:37;98781.72;;;1.41;80.09
64876;BME280;51369;49.862;9.908;2023-01-26T07:05:03;98784.41;;;1.40;80.41
64876;BME280;51369;49.862;9.908;2023-01-26T07:07:29;98791.50;;;1.41;80.21
64876;BME280;51369;49.862;9.908;2023-01-26T07:09:54;98795.94;;;1.42;80.40
64876;BME280;51369;49.862;9.908;2023-01-26T07:12:19;98795.94;;;1.42;80.65
64876;BME280;51369;49.862;9.908;2023-01-26T07:14:45;98789.72;;;1.43;80.45
64876;BME280;51369;49.862;9.908;2023-01-26T07:17:11;98789.72;;;1.44;80.92
64876;BME280;51369;49.862;9.908;2023-01-26T07:19:36;98786.16;;;1.45;79.81
64876;BME280;51369;49.862;9.908;2023-01-26T07:22:02;98795.94;;;1.45;80.50
64876;BME280;51369;49.862;9.908;2023-01-26T07:24:28;98795.94;;;1.46;80.89
64876;BME280;51369;49.862;9.908;2023-01-26T07:26:54;98798.59;;;1.46;80.08
64876;BME280;51369;49.862;9.908;2023-01-26T07:29:20;98799.47;;;1.47;80.65
64876;BME280;51369;49.862;9.908;2023-01-26T07:31:45;98801.25;;;1.46;80.85
64876;BME280;51369;49.862;9.908;2023-01-26T07:34:11;98805.69;;;1.47;80.21
64876;BME280;51369;49.862;9.908;2023-01-26T07:36:37;98803.91;;;1.48;80.44
64876;BME280;51369;49.862;9.908;2023-01-26T07:39:02;98801.25;;;1.51;81.00
64876;BME280;51369;49.862;9.908;2023-01-26T07:41:28;98800.34;;;1.50;81.38
64876;BME280;51369;49.862;9.908;2023-01-26T07:43:53;98797.69;;;1.50;80.71
64876;BME280;51369;49.862;9.908;2023-01-26T07:46:19;98795.94;;;1.51;80.56
64876;BME280;51369;49.862;9.908;2023-01-26T07:48:44;98792.38;;;1.52;80.53
64876;BME280;51369;49.862;9.908;2023-01-26T07:51:09;98789.72;;;1.52;80.99
64876;BME280;51369;49.862;9.908;2023-01-26T07:53:36;98791.50;;;1.53;80.58
64876;BME280;51369;49.862;9.908;2023-01-26T07:56:12;98795.94;;;1.52;80.43
64876;BME280;51369;49.862;9.908;2023-01-26T07:58:38;98797.69;;;1.53;80.46
64876;BME280;51369;49.862;9.908;2023-01-26T08:01:11;98799.47;;;1.51;81.10
64876;BME280;51369;49.862;9.908;2023-01-26T08:03:37;98794.16;;;1.53;80.76
64876;BME280;51369;49.862;9.908;2023-01-26T08:06:04;98788.81;;;1.53;80.84
64876;BME280;51369;49.862;9.908;2023-01-26T08:08:30;98783.50;;;1.54;81.53
64876;BME280;51369;49.862;9.908;2023-01-26T08:10:59;98788.81;;;1.56;81.55
64876;BME280;51369;49.862;9.908;2023-01-26T08:13:27;98785.28;;;1.57;80.29
64876;BME280;51369;49.862;9.908;2023-01-26T08:15:52;98782.63;;;1.57;80.55
64876;BME280;51369;49.862;9.908;2023-01-26T08:18:18;98790.59;;;1.58;80.54
64876;BME280;51369;49.862;9.908;2023-01-26T08:20:51;98783.50;;;1.57;80.76
64876;BME280;51369;49.862;9.908;2023-01-26T08:23:17;98790.59;;;1.60;80.65
64876;BME280;51369;49.862;9.908;2023-01-26T08:25:43;98791.50;;;1.60;79.99
64876;BME280;51369;49.862;9.908;2023-01-26T08:28:08;98787.06;;;1.61;80.32
64876;BME280;51369;49.862;9.908;2023-01-26T08:30:34;98785.28;;;1.60;80.43
64876;BME280;51369;49.862;9.908;2023-01-26T08:33:01;98784.38;;;1.58;80.70
64876;BME280;51369;49.862;9.908;2023-01-26T08:35:26;98783.50;;;1.56;80.47
64876;BME280;51369;49.862;9.908;2023-01-26T08:37:52;98780.84;;;1.56;80.56
64876;BME280;51369;49.862;9.908;2023-01-26T08:40:18;98784.41;;;1.55;79.79
64876;BME280;51369;49.862;9.908;2023-01-26T08:42:43;98783.50;;;1.53;80.11
64876;BME280;51369;49.862;9.908;2023-01-26T08:45:09;98789.72;;;1.52;79.91
64876;BME280;51369;49.862;9.908;2023-01-26T08:47:34;98787.94;;;1.49;79.53
64876;BME280;51369;49.862;9.908;2023-01-26T08:49:59;98786.16;;;1.50;79.33
64876;BME280;51369;49.862;9.908;2023-01-26T08:52:25;98786.16;;;1.51;80.45
64876;BME280;51369;49.862;9.908;2023-01-26T08:54:50;98791.50;;;1.53;79.76
64876;BME280;51369;49.862;9.908;2023-01-26T08:57:16;98787.06;;;1.53;79.50
64876;BME280;51369;49.862;9.908;2023-01-26T08:59:41;98790.59;;;1.54;80.42
64876;BME280;51369;49.862;9.908;2023-01-26T09:02:08;98791.50;;;1.54;79.75
64876;BME280;51369;49.862;9.908;2023-01-26T09:04:34;98789.72;;;1.58;79.64
64876;BME280;51369;49.862;9.908;2023-01-26T09:06:59;98795.94;;;1.58;79.99
64876;BME280;51369;49.862;9.908;2023-01-26T09:09:25;98795.03;;;1.61;80.16
64876;BME280;51369;49.862;9.908;2023-01-26T09:11:54;98807.47;;;1.59;79.56
64876;BME280;51369;49.862;9.908;2023-01-26T09:14:19;98808.34;;;1.61;79.13
64876;BME280;51369;49.862;9.908;2023-01-26T09:16:44;98811.88;;;1.60;78.88
64876;BME280;51369;49.862;9.908;2023-01-26T09:19:10;98809.22;;;1.58;78.75
64876;BME280;51369;49.862;9.908;2023-01-26T09:21:35;98808.34;;;1.58;79.00
64876;BME280;51369;49.862;9.908;2023-01-26T09:24:01;98803.91;;;1.58;79.75
64876;BME280;51369;49.862;9.908;2023-01-26T09:26:28;98808.34;;;1.61;79.18
64876;BME280;51369;49.862;9.908;2023-01-26T09:28:54;98810.13;;;1.63;79.19
64876;BME280;51369;49.862;9.908;2023-01-26T09:31:19;98805.69;;;1.66;78.63
64876;BME280;51369;49.862;9.908;2023-01-26T09:33:45;98806.56;;;1.69;79.41
64876;BME280;51369;49.862;9.908;2023-01-26T09:36:11;98804.78;;;1.70;79.04
64876;BME280;51369;49.862;9.908;2023-01-26T09:38:37;98799.47;;;1.71;77.95
64876;BME280;51369;49.862;9.908;2023-01-26T09:41:17;98814.56;;;1.71;78.54
64876;BME280;51369;49.862;9.908;2023-01-26T09:43:54;98821.66;;;1.72;78.11
64876;BME280;51369;49.862;9.908;2023-01-26T09:46:22;98818.06;;;1.74;78.36
64876;BME280;51369;49.862;9.908;2023-01-26T09:49:22;98826.97;;;1.73;77.51
64876;BME280;51369;49.862;9.908;2023-01-26T09:59:58;98814.56;;;1.72;76.85
64876;BME280;51369;49.862;9.908;2023-01-26T10:02:36;98824.31;;;1.70;76.98
64876;BME280;51369;49.862;9.908;2023-01-26T10:05:17;98826.09;;;1.70;77.12
64876;BME280;51369;49.862;9.908;2023-01-26T10:07:45;98815.44;;;1.68;76.58
64876;BME280;51369;49.862;9.908;2023-01-26T10:10:24;98811.88;;;1.68;77.33
64876;BME280;51369;49.862;9.908;2023-01-26T10:12:50;98816.28;;;1.76;76.07
64876;BME280;51369;49.862;9.908;2023-01-26T10:17:46;98813.63;;;1.82;76.04
64876;BME280;51369;49.862;9.908;2023-01-26T10:22:50;98810.94;;;1.85;74.91
64876;BME280;51369;49.862;9.908;2023-01-26T10:25:28;98799.41;;;1.86;75.65
64876;BME280;51369;49.862;9.908;2023-01-26T10:27:54;98798.53;;;1.90;74.71
64876;BME280;51369;49.862;9.908;2023-01-26T10:30:20;98802.06;;;1.92;75.06
64876;BME280;51369;49.862;9.908;2023-01-26T10:32:49;98794.97;;;1.94;75.06
64876;BME280;51369;49.862;9.908;2023-01-26T10:35:23;98806.50;;;1.96;75.01
64876;BME280;51369;49.862;9.908;2023-01-26T10:37:50;98796.72;;;1.99;74.98
64876;BME280;51369;49.862;9.908;2023-01-26T10:40:18;98786.97;;;2.01;74.76
64876;BME280;51369;49.862;9.908;2023-01-26T10:42:57;98779.88;;;2.01;73.98
64876;BME280;51369;49.862;9.908;2023-01-26T10:48:22;98779.84;;;2.07;74.19
64876;BME280;51369;49.862;9.908;2023-01-26T10:50:51;98780.72;;;2.11;73.92
64876;BME280;51369;49.862;9.908;2023-01-26T10:53:28;98791.38;;;2.08;74.69
64876;BME280;51369;49.862;9.908;2023-01-26T10:56:12;98771.88;;;2.04;74.21
64876;BME280;51369;49.862;9.908;2023-01-26T11:01:14;98770.09;;;2.05;73.51
64876;BME280;51369;49.862;9.908;2023-01-26T11:04:00;98772.75;;;2.03;74.63
64876;BME280;51369;49.862;9.908;2023-01-26T11:06:28;98776.31;;;2.05;74.39
64876;BME280;51369;49.862;9.908;2023-01-26T11:09:07;98767.44;;;2.03;73.34
64876;BME280;51369;49.862;9.908;2023-01-26T11:11:33;98763.00;;;2.04;74.48
64876;BME280;51369;49.862;9.908;2023-01-26T11:14:16;98757.69;;;2.01;73.08
64876;BME280;51369;49.862;9.908;2023-01-26T11:16:58;98747.00;;;2.02;74.30
64876;BME280;51369;49.862;9.908;2023-01-26T11:21:54;98735.44;;;2.09;73.07
64876;BME280;51369;49.862;9.908;2023-01-26T11:24:32;98732.78;;;2.11;72.72
64876;BME280;51369;49.862;9.908;2023-01-26T11:27:26;98729.22;;;2.12;73.43
64876;BME280;51369;49.862;9.908;2023-01-26T11:30:23;98731.00;;;2.16;72.46
64876;BME280;51369;49.862;9.908;2023-01-26T11:33:00;98735.44;;;2.17;73.23
64876;BME280;51369;49.862;9.908;2023-01-26T11:41:01;98716.78;;;2.18;73.59
64876;BME280;51369;49.862;9.908;2023-01-26T11:43:42;98718.53;;;2.21;72.69
64876;BME280;51369;49.862;9.908;2023-01-26T11:48:57;98714.97;;;2.23;73.17
64876;BME280;51369;49.862;9.908;2023-01-26T11:57:05;98706.09;;;2.26;72.57
64876;BME280;51369;49.862;9.908;2023-01-26T11:59:45;98700.75;;;2.26;73.43
64876;BME280;51369;49.862;9.908;2023-01-26T12:04:46;98699.88;;;2.25;73.69
64876;BME280;51369;49.862;9.908;2023-01-26T12:07:18;98699.88;;;2.25;73.63
64876;BME280;51369;49.862;9.908;2023-01-26T12:09:47;98700.78;;;2.23;73.75
64876;BME280;51369;49.862;9.908;2023-01-26T12:12:25;98702.56;;;2.21;72.85
64876;BME280;51369;49.862;9.908;2023-01-26T12:15:03;98708.78;;;2.20;72.36
64876;BME280;51369;49.862;9.908;2023-01-26T12:17:57;98701.69;;;2.17;73.72
64876;BME280;51369;49.862;9.908;2023-01-26T12:20:36;98693.69;;;2.17;73.92
64876;BME280;51369;49.862;9.908;2023-01-26T12:23:05;98692.81;;;2.18;72.83
64876;BME280;51369;49.862;9.908;2023-01-26T12:25:50;98684.81;;;2.17;73.87
64876;BME280;51369;49.862;9.908;2023-01-26T12:28:24;98685.69;;;2.17;73.02
64876;BME280;51369;49.862;9.908;2023-01-26T12:33:20;98669.72;;;2.20;73.83
64876;BME280;51369;49.862;9.908;2023-01-26T12:38:21;98665.25;;;2.21;73.49
64876;BME280;51369;49.862;9.908;2023-01-26T12:46:01;98656.44;;;2.13;72.82
64876;BME280;51369;49.862;9.908;2023-01-26T12:48:52;98660.00;;;2.06;73.60
64876;BME280;51369;49.862;9.908;2023-01-26T12:54:15;98654.72;;;1.96;72.82
64876;BME280;51369;49.862;9.908;2023-01-26T12:56:51;98657.38;;;1.96;73.96
64876;BME280;51369;49.862;9.908;2023-01-26T12:59:26;98656.50;;;1.96;73.96
64876;BME280;51369;49.862;9.908;2023-01-26T13:01:53;98655.63;;;1.94;73.51
64876;BME280;51369;49.862;9.908;2023-01-26T13:04:18;98660.06;;;1.90;74.35
64876;BME280;51369;49.862;9.908;2023-01-26T13:06:44;98665.41;;;1.87;73.57
64876;BME280;51369;49.862;9.908;2023-01-26T13:09:25;98666.31;;;1.82;74.14
64876;BME280;51369;49.862;9.908;2023-01-26T13:11:51;98653.91;;;1.78;74.01
64876;BME280;51369;49.862;9.908;2023-01-26T13:14:29;98657.47;;;1.74;74.35
64876;BME280;51369;49.862;9.908;2023-01-26T13:16:55;98650.41;;;1.71;74.10
64876;BME280;51369;49.862;9.908;2023-01-26T13:19:36;98653.97;;;1.69;73.70
64876;BME280;51369;49.862;9.908;2023-01-26T13:24:47;98652.19;;;1.65;74.82
64876;BME280;51369;49.862;9.908;2023-01-26T13:27:27;98653.97;;;1.64;74.51
64876;BME280;51369;49.862;9.908;2023-01-26T13:29:54;98649.53;;;1.65;74.83
64876;BME280;51369;49.862;9.908;2023-01-26T13:34:47;98654.00;;;1.56;75.26
64876;BME280;51369;49.862;9.908;2023-01-26T13:37:18;98653.13;;;1.54;74.94
64876;BME280;51369;49.862;9.908;2023-01-26T13:39:59;98657.56;;;1.51;74.60
64876;BME280;51369;49.862;9.908;2023-01-26T13:42:42;98663.78;;;1.48;74.51
64876;BME280;51369;49.862;9.908;2023-01-26T13:45:19;98662.88;;;1.49;75.15
64876;BME280;51369;49.862;9.908;2023-01-26T13:47:49;98662.00;;;1.47;74.62
64876;BME280;51369;49.862;9.908;2023-01-26T13:50:32;98658.47;;;1.44;74.50
64876;BME280;51369;49.862;9.908;2023-01-26T13:52:59;98667.31;;;1.46;74.60
64876;BME280;51369;49.862;9.908;2023-01-26T13:55:34;98662.00;;;1.44;75.06
64876;BME280;51369;49.862;9.908;2023-01-26T13:58:17;98663.78;;;1.42;74.72
64876;BME280;51369;49.862;9.908;2023-01-26T14:00:59;98659.34;;;1.41;74.42
64876;BME280;51369;49.862;9.908;2023-01-26T14:03:25;98659.34;;;1.41;75.27
64876;BME280;51369;49.862;9.908;2023-01-26T14:05:56;98656.69;;;1.38;74.94
64876;BME280;51369;49.862;9.908;2023-01-26T14:08:22;98665.56;;;1.39;74.15
64876;BME280;51369;49.862;9.908;2023-01-26T14:10:48;98662.91;;;1.37;74.24
64876;BME280;51369;49.862;9.908;2023-01-26T14:13:35;98664.69;;;1.37;74.33
64876;BME280;51369;49.862;9.908;2023-01-26T14:16:02;98669.13;;;1.38;75.10
64876;BME280;51369;49.862;9.908;2023-01-26T14:18:29;98670.88;;;1.36;75.04
64876;BME280;51369;49.862;9.908;2023-01-26T14:21:02;98671.78;;;1.33;75.05
64876;BME280;51369;49.862;9.908;2023-01-26T14:23:33;98666.47;;;1.33;74.29
64876;BME280;51369;49.862;9.908;2023-01-26T14:26:02;98679.75;;;1.33;74.73
64876;BME280;51369;49.862;9.908;2023-01-26T14:28:34;98666.47;;;1.33;74.79